createdAt,value
2023-02-26T00:01:28.589Z,43.70
2023-02-26T00:03:53.912Z,42.30
2023-02-26T00:06:18.560Z,40.13
2023-02-26T00:08:43.079Z,41.67
2023-02-26T00:11:10.990Z,39.50
2023-02-26T00:13:37.196Z,40.10
2023-02-26T00:16:03.254Z,39.53
2023-02-26T00:18:28.255Z,40.55
2023-02-26T00:20:53.581Z,42.17
2023-02-26T00:23:19.793Z,39.20
2023-02-26T00:25:44.475Z,40.05
2023-02-26T00:28:12.429Z,42.17
2023-02-26T00:30:38.018Z,43.58
2023-02-26T00:33:03.669Z,43.67
2023-02-26T00:35:30.141Z,42.88
2023-02-26T00:38:03.020Z,42.08
2023-02-26T00:40:36.512Z,42.17
2023-02-26T00:43:01.957Z,41.15
2023-02-26T00:45:30.436Z,41.33
2023-02-26T00:48:22.712Z,39.28
2023-02-26T00:50:54.603Z,38.45
2023-02-26T00:53:23.576Z,37.90
2023-02-26T00:55:48.188Z,37.28
2023-02-26T00:58:12.763Z,37.42
2023-02-26T01:00:38.669Z,39.78
2023-02-26T01:03:04.513Z,37.58
2023-02-26T01:05:29.616Z,36.65
2023-02-26T01:08:00.954Z,37.33
2023-02-26T01:10:27.772Z,37.53
2023-02-26T01:12:52.918Z,35.35
2023-02-26T01:15:18.432Z,36.80
2023-02-26T01:17:50.280Z,35.50
2023-02-26T01:20:20.011Z,37.65
2023-02-26T01:22:51.203Z,33.60
2023-02-26T01:25:23.074Z,36.58
2023-02-26T01:27:49.336Z,36.15
2023-02-26T01:30:14.952Z,32.83
2023-02-26T01:32:47.951Z,36.75
2023-02-26T01:35:22.834Z,36.42
2023-02-26T01:37:54.212Z,35.65
2023-02-26T01:40:50.350Z,35.28
2023-02-26T01:43:22.740Z,36.55
2023-02-26T01:45:59.176Z,34.90
2023-02-26T01:48:37.466Z,34.50
2023-02-26T01:51:02.158Z,33.28
2023-02-26T01:53:28.332Z,33.83
2023-02-26T01:55:57.645Z,34.05
2023-02-26T01:58:23.531Z,35.47
2023-02-26T02:00:48.356Z,37.25
2023-02-26T02:03:13.280Z,42.22
2023-02-26T02:05:45.167Z,43.13
2023-02-26T02:08:11.763Z,37.35
2023-02-26T02:10:36.403Z,37.90
2023-02-26T02:13:11.976Z,39.65
2023-02-26T02:16:07.859Z,37.13
2023-02-26T02:18:40.476Z,38.58
2023-02-26T02:21:41.383Z,36.95
2023-02-26T02:24:15.904Z,37.65
2023-02-26T02:27:04.062Z,38.17
2023-02-26T02:29:56.811Z,37.38
2023-02-26T02:32:27.466Z,37.38
2023-02-26T02:34:56.659Z,35.90
2023-02-26T02:37:26.188Z,36.63
2023-02-26T02:39:56.765Z,38.58
2023-02-26T02:42:27.432Z,37.58
2023-02-26T02:44:58.430Z,35.47
2023-02-26T02:47:26.321Z,36.47
2023-02-26T02:49:57.707Z,33.10
2023-02-26T02:52:28.337Z,37.92
2023-02-26T02:57:24.901Z,34.65
2023-02-26T02:59:52.766Z,37.72
2023-02-26T03:02:23.944Z,35.38
2023-02-26T03:04:50.390Z,37.88
2023-02-26T03:07:14.938Z,34.40
2023-02-26T03:09:40.895Z,34.63
2023-02-26T03:12:06.366Z,36.50
2023-02-26T03:14:31.603Z,36.95
2023-02-26T03:17:20.868Z,36.90
2023-02-26T03:19:57.447Z,33.97
2023-02-26T03:22:30.554Z,34.78
2023-02-26T03:25:02.452Z,36.60
2023-02-26T03:27:34.052Z,37.28
2023-02-26T03:30:03.857Z,33.33
2023-02-26T03:32:39.109Z,37.55
2023-02-26T03:35:09.606Z,38.20
2023-02-26T03:37:39.195Z,37.05
2023-02-26T03:40:09.597Z,39.22
2023-02-26T03:42:37.824Z,37.70
2023-02-26T03:47:34.206Z,39.03
2023-02-26T03:50:04.422Z,40.58
2023-02-26T03:52:39.188Z,39.25
2023-02-26T03:55:34.624Z,37.72
2023-02-26T03:58:17.927Z,39.55
2023-02-26T04:01:11.916Z,38.17
2023-02-26T04:03:41.652Z,41.38
2023-02-26T04:06:07.111Z,41.50
2023-02-26T04:08:33.853Z,41.45
2023-02-26T04:11:00.937Z,39.55
2023-02-26T04:13:26.180Z,40.10
2023-02-26T04:15:50.825Z,39.42
2023-02-26T04:18:15.343Z,39.95
2023-02-26T04:20:39.958Z,37.83
2023-02-26T04:23:04.460Z,38.60
2023-02-26T04:25:30.885Z,39.35
2023-02-26T04:27:58.861Z,38.45
2023-02-26T04:30:24.109Z,41.67
2023-02-26T04:32:49.138Z,40.42
2023-02-26T04:35:13.764Z,37.80
2023-02-26T04:37:38.314Z,37.03
2023-02-26T04:40:04.001Z,37.78
2023-02-26T04:42:30.542Z,39.30
2023-02-26T04:44:55.241Z,39.67
2023-02-26T04:47:22.074Z,40.10
2023-02-26T04:49:46.818Z,41.40
2023-02-26T04:52:12.161Z,39.10
2023-02-26T04:54:38.055Z,39.20
2023-02-26T04:57:02.831Z,39.65
2023-02-26T04:59:29.037Z,39.58
2023-02-26T05:01:55.350Z,38.95
2023-02-26T05:04:20.146Z,38.53
2023-02-26T05:06:48.336Z,38.35
2023-02-26T05:09:12.967Z,38.58
2023-02-26T05:11:39.095Z,39.95
2023-02-26T05:14:04.801Z,35.03
2023-02-26T05:16:33.808Z,36.78
2023-02-26T05:18:58.849Z,35.10
2023-02-26T05:21:26.069Z,37.63
2023-02-26T05:23:50.802Z,36.40
2023-02-26T05:26:15.325Z,37.30
2023-02-26T05:28:40.026Z,34.78
2023-02-26T05:31:04.957Z,36.17
2023-02-26T05:33:31.076Z,35.75
2023-02-26T05:35:57.598Z,35.30
2023-02-26T05:38:22.856Z,35.78
2023-02-26T05:40:47.370Z,35.78
2023-02-26T05:43:11.975Z,39.83
2023-02-26T05:45:36.987Z,36.10
2023-02-26T05:48:01.657Z,35.35
2023-02-26T05:50:28.140Z,36.65
2023-02-26T05:52:53.140Z,37.38
2023-02-26T05:55:18.217Z,36.85
2023-02-26T05:57:44.335Z,34.75
2023-02-26T06:00:12.400Z,32.78
2023-02-26T06:02:40.119Z,34.80
2023-02-26T06:05:08.947Z,33.42
2023-02-26T06:07:35.168Z,35.08
2023-02-26T06:09:59.981Z,35.97
2023-02-26T06:12:25.450Z,35.28
2023-02-26T06:14:52.349Z,32.67
2023-02-26T06:17:16.968Z,37.58
2023-02-26T06:19:41.876Z,35.33
2023-02-26T06:22:06.804Z,36.33
2023-02-26T06:24:33.452Z,37.38
2023-02-26T06:26:58.052Z,35.70
2023-02-26T06:29:23.959Z,36.72
2023-02-26T06:31:49.525Z,38.05
2023-02-26T06:34:14.558Z,39.13
2023-02-26T06:36:39.374Z,39.30
2023-02-26T06:39:04.466Z,41.00
2023-02-26T06:41:30.729Z,39.88
2023-02-26T06:43:55.563Z,41.72
2023-02-26T06:46:20.569Z,38.70
2023-02-26T06:48:45.100Z,40.35
2023-02-26T06:51:10.290Z,36.08
2023-02-26T06:53:35.328Z,36.58
2023-02-26T06:56:05.375Z,37.85
2023-02-26T06:58:32.561Z,37.80
2023-02-26T07:00:59.245Z,37.47
2023-02-26T07:03:24.296Z,39.70
2023-02-26T07:05:48.870Z,37.92
2023-02-26T07:08:14.176Z,37.20
2023-02-26T07:10:39.681Z,35.97
2023-02-26T07:13:04.358Z,36.38
2023-02-26T07:15:31.142Z,36.63
2023-02-26T07:17:56.000Z,41.97
2023-02-26T07:20:23.354Z,45.83
2023-02-26T07:22:47.862Z,47.13
2023-02-26T07:25:13.412Z,56.95
2023-02-26T07:27:38.154Z,52.72
2023-02-26T07:30:02.936Z,40.67
2023-02-26T07:32:30.099Z,37.22
2023-02-26T07:34:54.649Z,37.28
2023-02-26T07:37:19.589Z,40.33
2023-02-26T07:39:43.965Z,38.17
2023-02-26T07:42:09.227Z,36.40
2023-02-26T07:44:34.350Z,38.95
2023-02-26T07:46:59.080Z,38.05
2023-02-26T07:49:25.422Z,38.22
2023-02-26T07:51:50.348Z,37.90
2023-02-26T07:54:15.689Z,37.75
2023-02-26T07:56:41.325Z,37.35
2023-02-26T07:59:06.138Z,36.40
2023-02-26T08:01:30.758Z,36.75
2023-02-26T08:03:55.256Z,34.88
2023-02-26T08:06:21.029Z,36.28
2023-02-26T08:08:45.894Z,33.40
2023-02-26T08:11:11.553Z,34.08
2023-02-26T08:13:35.961Z,35.97
2023-02-26T08:16:00.518Z,34.30
2023-02-26T08:18:25.343Z,35.08
2023-02-26T08:20:52.213Z,34.30
2023-02-26T08:23:17.997Z,33.13
2023-02-26T08:25:42.647Z,33.63
2023-02-26T08:28:07.488Z,30.42
2023-02-26T08:30:32.036Z,33.40
2023-02-26T08:32:56.533Z,32.70
2023-02-26T08:35:21.076Z,31.55
2023-02-26T08:37:45.468Z,31.65
2023-02-26T08:40:17.926Z,32.85
2023-02-26T08:42:42.395Z,36.75
2023-02-26T08:45:09.540Z,31.83
2023-02-26T08:47:39.350Z,34.67
2023-02-26T08:50:04.724Z,33.72
2023-02-26T08:52:29.352Z,35.15
2023-02-26T08:54:54.396Z,33.78
2023-02-26T08:57:20.376Z,35.28
2023-02-26T08:59:44.914Z,36.47
2023-02-26T09:02:11.079Z,34.22
2023-02-26T09:04:35.522Z,34.63
2023-02-26T09:07:00.176Z,35.08
2023-02-26T09:09:24.735Z,37.53
2023-02-26T09:11:49.661Z,35.35
2023-02-26T09:14:17.187Z,35.22
2023-02-26T09:16:41.675Z,36.63
2023-02-26T09:19:06.789Z,38.67
2023-02-26T09:21:31.338Z,35.67
2023-02-26T09:23:55.721Z,40.90
2023-02-26T09:26:20.077Z,36.53
2023-02-26T09:28:44.941Z,35.05
2023-02-26T09:31:10.793Z,35.72
2023-02-26T09:33:37.382Z,38.40
2023-02-26T09:36:01.798Z,37.10
2023-02-26T09:38:26.699Z,36.70
2023-02-26T09:40:55.708Z,38.35
2023-02-26T09:43:35.763Z,40.23
2023-02-26T09:48:29.400Z,57.85
2023-02-26T09:50:57.362Z,46.33
2023-02-26T09:53:25.462Z,37.38
2023-02-26T09:55:51.391Z,34.17
2023-02-26T09:58:25.158Z,31.75
2023-02-26T10:00:55.970Z,33.38
2023-02-26T10:03:28.625Z,32.30
2023-02-26T10:06:17.509Z,33.05
2023-02-26T10:08:48.527Z,29.77
2023-02-26T10:11:21.880Z,31.60
2023-02-26T10:13:57.642Z,30.55
2023-02-26T10:16:26.631Z,29.08
2023-02-26T10:18:56.332Z,30.85
2023-02-26T10:21:27.675Z,28.50
2023-02-26T10:23:56.341Z,27.58
2023-02-26T10:26:25.430Z,26.15
2023-02-26T10:28:59.457Z,25.67
2023-02-26T10:31:30.716Z,21.50
2023-02-26T10:34:05.616Z,22.33
2023-02-26T10:36:32.222Z,19.50
2023-02-26T10:39:03.829Z,18.85
2023-02-26T10:41:31.839Z,12.52
2023-02-26T10:44:10.440Z,7.55
2023-02-26T10:46:46.879Z,6.28
2023-02-26T10:49:42.635Z,7.15
2023-02-26T10:52:14.756Z,6.32
2023-02-26T10:54:42.540Z,5.93
2023-02-26T10:57:09.170Z,8.25
2023-02-26T10:59:34.146Z,6.00
2023-02-26T11:02:00.057Z,6.70
2023-02-26T11:04:30.185Z,7.13
2023-02-26T11:06:58.080Z,6.15
2023-02-26T11:09:26.496Z,6.68
2023-02-26T11:11:54.120Z,5.60
2023-02-26T11:14:21.764Z,7.50
2023-02-26T11:16:50.164Z,6.85
2023-02-26T11:19:16.556Z,6.85
2023-02-26T11:21:45.131Z,6.38
2023-02-26T11:24:14.797Z,6.63
2023-02-26T11:26:43.846Z,6.70
2023-02-26T11:29:08.664Z,6.53
2023-02-26T11:31:34.444Z,6.68
2023-02-26T11:34:03.152Z,7.65
2023-02-26T11:36:30.452Z,6.72
2023-02-26T11:38:59.426Z,6.88
2023-02-26T11:41:25.390Z,6.10
2023-02-26T11:44:04.103Z,6.90
2023-02-26T11:46:29.876Z,7.50
2023-02-26T11:48:59.868Z,7.32
2023-02-26T11:51:29.172Z,7.10
2023-02-26T11:53:56.636Z,7.40
2023-02-26T11:56:31.577Z,7.53
2023-02-26T11:58:56.697Z,7.55
2023-02-26T12:01:23.174Z,7.97
2023-02-26T12:03:51.373Z,8.80
2023-02-26T12:06:19.858Z,8.07
2023-02-26T12:08:44.523Z,7.25
2023-02-26T12:11:31.933Z,6.63
2023-02-26T12:14:08.972Z,7.10
2023-02-26T12:16:41.716Z,7.10
2023-02-26T12:19:15.214Z,7.35
2023-02-26T12:21:59.940Z,7.60
2023-02-26T12:24:40.028Z,7.15
2023-02-26T12:27:16.240Z,9.02
2023-02-26T12:29:53.272Z,7.03
2023-02-26T12:32:48.792Z,6.72
2023-02-26T12:35:40.023Z,8.70
2023-02-26T12:38:17.337Z,7.68
2023-02-26T12:40:53.114Z,7.90
2023-02-26T12:43:28.915Z,6.25
2023-02-26T12:45:59.718Z,7.57
2023-02-26T12:48:46.474Z,6.93
2023-02-26T12:51:21.401Z,7.75
2023-02-26T12:54:08.153Z,6.70
2023-02-26T12:56:50.630Z,7.80
2023-02-26T12:59:50.873Z,6.72
2023-02-26T13:02:37.605Z,6.75
2023-02-26T13:05:25.336Z,7.07
2023-02-26T13:08:00.525Z,6.78
2023-02-26T13:10:33.521Z,7.10
2023-02-26T13:13:09.430Z,7.43
2023-02-26T13:15:59.907Z,6.50
2023-02-26T13:18:30.377Z,6.80
2023-02-26T13:21:00.685Z,7.70
2023-02-26T13:25:57.559Z,9.75
2023-02-26T13:28:27.421Z,10.85
2023-02-26T13:33:20.920Z,10.77
2023-02-26T13:35:47.401Z,7.40
2023-02-26T13:38:18.361Z,7.20
2023-02-26T13:40:49.025Z,7.68
2023-02-26T13:43:28.864Z,6.38
2023-02-26T13:48:36.187Z,7.22
2023-02-26T13:51:08.617Z,6.13
2023-02-26T13:53:47.578Z,6.03
2023-02-26T13:56:19.660Z,5.50
2023-02-26T13:58:45.983Z,6.78
2023-02-26T14:01:16.635Z,6.32
2023-02-26T14:03:47.045Z,7.13
2023-02-26T14:06:25.625Z,6.60
2023-02-26T14:08:52.917Z,6.55
2023-02-26T14:11:45.866Z,7.60
2023-02-26T14:14:18.248Z,6.88
2023-02-26T14:16:45.885Z,6.47
2023-02-26T14:19:27.750Z,7.75
2023-02-26T14:21:57.731Z,7.15
2023-02-26T14:26:53.046Z,5.53
2023-02-26T14:29:23.037Z,7.65
2023-02-26T14:32:07.039Z,7.70
2023-02-26T14:34:35.698Z,7.07
2023-02-26T14:37:02.638Z,7.18
2023-02-26T14:39:31.592Z,7.60
2023-02-26T14:42:02.589Z,6.45
2023-02-26T14:44:32.617Z,6.78
2023-02-26T14:46:59.139Z,6.55
2023-02-26T14:49:29.168Z,6.43
2023-02-26T14:52:32.455Z,6.63
2023-02-26T14:55:20.037Z,6.18
2023-02-26T14:57:53.691Z,8.27
2023-02-26T15:00:30.353Z,7.15
2023-02-26T15:03:24.951Z,5.72
2023-02-26T15:06:17.245Z,7.20
2023-02-26T15:08:56.019Z,6.65
2023-02-26T15:11:39.864Z,7.68
2023-02-26T15:14:44.743Z,6.63
2023-02-26T15:17:21.395Z,7.10
2023-02-26T15:20:02.926Z,7.07
2023-02-26T15:22:42.205Z,6.90
2023-02-26T15:25:09.586Z,6.85
2023-02-26T15:27:34.837Z,8.77
2023-02-26T15:30:00.526Z,6.93
2023-02-26T15:32:27.366Z,7.13
2023-02-26T15:35:00.866Z,7.65
2023-02-26T15:37:27.065Z,6.80
2023-02-26T15:39:52.469Z,7.40
2023-02-26T15:42:17.572Z,6.65
2023-02-26T15:44:55.188Z,5.80
2023-02-26T15:47:21.236Z,8.95
2023-02-26T15:49:49.433Z,7.25
2023-02-26T15:52:18.748Z,7.40
2023-02-26T15:54:45.306Z,7.95
2023-02-26T15:57:11.003Z,8.23
2023-02-26T15:59:41.976Z,8.88
2023-02-26T16:02:11.428Z,8.55
2023-02-26T16:04:38.226Z,7.90
2023-02-26T16:07:02.796Z,7.90
2023-02-26T16:09:30.992Z,7.53
2023-02-26T16:11:57.897Z,8.30
2023-02-26T16:14:25.912Z,6.70
2023-02-26T16:16:52.334Z,7.10
2023-02-26T16:19:18.146Z,6.38
2023-02-26T16:21:44.260Z,7.80
2023-02-26T16:24:12.171Z,7.50
2023-02-26T16:26:43.523Z,8.10
2023-02-26T16:29:13.392Z,8.75
2023-02-26T16:31:38.853Z,7.95
2023-02-26T16:34:05.819Z,8.20
2023-02-26T16:36:33.027Z,11.05
2023-02-26T16:39:01.990Z,16.17
2023-02-26T16:41:31.021Z,18.50
2023-02-26T16:43:59.169Z,19.13
2023-02-26T16:46:33.755Z,18.50
2023-02-26T16:49:01.888Z,16.70
2023-02-26T16:51:28.868Z,16.92
2023-02-26T16:53:58.307Z,15.07
2023-02-26T16:56:27.655Z,15.48
2023-02-26T16:59:06.986Z,17.60
2023-02-26T17:01:37.014Z,16.63
2023-02-26T17:04:04.036Z,18.35
2023-02-26T17:06:31.310Z,18.48
2023-02-26T17:08:59.195Z,21.88
2023-02-26T17:11:28.383Z,21.13
2023-02-26T17:14:15.475Z,19.48
2023-02-26T17:16:40.342Z,19.20
2023-02-26T17:19:05.268Z,19.80
2023-02-26T17:21:30.145Z,17.20
2023-02-26T17:23:56.993Z,20.42
2023-02-26T17:26:21.876Z,19.38
2023-02-26T17:28:48.652Z,19.35
2023-02-26T17:31:15.248Z,20.13
2023-02-26T17:33:43.037Z,20.42
2023-02-26T17:36:08.710Z,20.25
2023-02-26T17:38:33.577Z,19.63
2023-02-26T17:40:58.841Z,17.70
2023-02-26T17:43:24.119Z,17.13
2023-02-26T17:45:48.622Z,17.02
2023-02-26T17:48:16.121Z,21.10
2023-02-26T17:50:47.071Z,26.00
2023-02-26T17:53:14.432Z,26.60
2023-02-26T17:55:39.851Z,25.08
2023-02-26T17:58:04.328Z,29.15
2023-02-26T18:00:28.833Z,27.27
2023-02-26T18:02:53.577Z,23.20
2023-02-26T18:05:20.520Z,24.85
2023-02-26T18:07:45.984Z,21.73
2023-02-26T18:10:17.929Z,22.60
2023-02-26T18:12:46.888Z,20.45
2023-02-26T18:15:12.709Z,26.20
2023-02-26T18:17:37.236Z,23.67
2023-02-26T18:20:01.679Z,24.05
2023-02-26T18:22:28.670Z,26.15
2023-02-26T18:24:53.348Z,23.10
2023-02-26T18:27:20.532Z,30.13
2023-02-26T18:29:45.475Z,24.23
2023-02-26T18:32:15.037Z,26.00
2023-02-26T18:34:39.749Z,28.98
2023-02-26T18:37:04.538Z,29.38
2023-02-26T18:39:33.023Z,31.33
2023-02-26T18:41:57.513Z,28.48
2023-02-26T18:44:22.043Z,28.23
2023-02-26T18:46:46.540Z,27.90
2023-02-26T18:49:17.411Z,26.23
2023-02-26T18:51:41.984Z,25.08
2023-02-26T18:54:08.087Z,23.15
2023-02-26T18:56:36.419Z,21.35
2023-02-26T18:59:00.759Z,22.48
2023-02-26T19:01:25.508Z,22.20
2023-02-26T19:03:49.978Z,19.98
2023-02-26T19:06:15.048Z,21.13
2023-02-26T19:08:39.478Z,16.52
2023-02-26T19:11:03.931Z,23.67
2023-02-26T19:13:29.839Z,20.10
2023-02-26T19:15:54.450Z,25.55
2023-02-26T19:18:19.751Z,18.63
2023-02-26T19:20:44.445Z,26.60
2023-02-26T19:23:10.002Z,25.88
2023-02-26T19:25:34.410Z,26.77
2023-02-26T19:27:58.791Z,28.02
2023-02-26T19:30:25.166Z,20.05
2023-02-26T19:32:49.612Z,17.52
2023-02-26T19:35:14.214Z,15.82
2023-02-26T19:37:46.187Z,16.23
2023-02-26T19:40:16.452Z,11.82
2023-02-26T19:42:41.511Z,13.32
2023-02-26T19:45:06.688Z,14.52
2023-02-26T19:47:32.580Z,14.93
2023-02-26T19:50:00.506Z,13.00
2023-02-26T19:52:28.064Z,12.38
2023-02-26T19:54:52.678Z,12.15
2023-02-26T19:57:17.892Z,10.38
2023-02-26T19:59:45.237Z,12.38
2023-02-26T20:02:10.823Z,11.93
2023-02-26T20:04:36.970Z,12.75
2023-02-26T20:07:01.984Z,13.15
2023-02-26T20:09:28.027Z,11.70
2023-02-26T20:11:52.496Z,12.55
2023-02-26T20:14:16.849Z,12.15
2023-02-26T20:16:41.511Z,12.07
2023-02-26T20:19:06.146Z,8.63
2023-02-26T20:21:32.204Z,11.45
2023-02-26T20:23:57.721Z,9.82
2023-02-26T20:26:22.301Z,10.98
2023-02-26T20:28:46.879Z,11.57
2023-02-26T20:31:12.351Z,9.60
2023-02-26T20:33:39.374Z,7.72
2023-02-26T20:36:04.903Z,11.40
2023-02-26T20:38:30.754Z,11.02
2023-02-26T20:40:56.659Z,7.82
2023-02-26T20:43:21.268Z,11.60
2023-02-26T20:45:45.860Z,11.80
2023-02-26T20:48:11.480Z,9.40
2023-02-26T20:50:36.488Z,9.73
2023-02-26T20:53:01.134Z,10.10
2023-02-26T20:55:27.027Z,9.80
2023-02-26T20:57:51.692Z,10.23
2023-02-26T21:00:18.300Z,11.10
2023-02-26T21:02:43.162Z,11.00
2023-02-26T21:05:09.128Z,9.90
2023-02-26T21:07:34.723Z,10.25
2023-02-26T21:10:00.505Z,9.93
2023-02-26T21:12:26.497Z,10.07
2023-02-26T21:14:52.746Z,9.32
2023-02-26T21:17:17.198Z,11.27
2023-02-26T21:19:41.935Z,10.23
2023-02-26T21:22:08.493Z,8.38
2023-02-26T21:24:33.126Z,9.50
2023-02-26T21:26:57.720Z,9.75
2023-02-26T21:29:23.838Z,10.85
2023-02-26T21:31:53.306Z,9.88
2023-02-26T21:34:33.227Z,11.35
2023-02-26T21:37:00.435Z,10.48
2023-02-26T21:39:24.888Z,11.98
2023-02-26T21:41:49.353Z,10.85
2023-02-26T21:44:13.828Z,10.95
2023-02-26T21:46:39.777Z,12.85
2023-02-26T21:49:04.211Z,13.05
2023-02-26T21:51:29.261Z,11.38
2023-02-26T21:53:53.959Z,12.73
2023-02-26T21:56:19.224Z,11.38
2023-02-26T21:58:44.137Z,10.43
2023-02-26T22:01:10.560Z,7.90
2023-02-26T22:03:36.473Z,8.85
2023-02-26T22:06:01.105Z,7.05
2023-02-26T22:08:25.671Z,6.93
2023-02-26T22:10:50.084Z,6.65
2023-02-26T22:13:15.212Z,8.40
2023-02-26T22:15:39.788Z,7.13
2023-02-26T22:18:04.143Z,8.02
2023-02-26T22:20:31.464Z,6.95
2023-02-26T22:22:55.811Z,6.25
2023-02-26T22:25:20.452Z,8.00
2023-02-26T22:27:44.809Z,7.25
2023-02-26T22:30:12.209Z,5.75
2023-02-26T22:32:36.619Z,6.13
2023-02-26T22:35:01.207Z,7.45
2023-02-26T22:37:27.081Z,6.38
2023-02-26T22:39:51.841Z,7.65
2023-02-26T22:42:16.306Z,7.90
2023-02-26T22:44:41.047Z,6.55
2023-02-26T22:47:05.587Z,6.80
2023-02-26T22:49:30.401Z,6.15
2023-02-26T22:51:57.172Z,5.20
2023-02-26T22:54:23.162Z,6.00
2023-02-26T22:56:47.609Z,6.38
2023-02-26T22:59:12.123Z,5.60
2023-02-26T23:01:36.635Z,6.13
2023-02-26T23:04:01.165Z,4.68
2023-02-26T23:06:25.594Z,6.32
2023-02-26T23:08:50.303Z,5.72
2023-02-26T23:11:16.107Z,6.25
2023-02-26T23:13:40.698Z,6.22
2023-02-26T23:16:08.659Z,6.32
2023-02-26T23:18:34.272Z,7.38
2023-02-26T23:20:58.802Z,6.90
2023-02-26T23:23:23.446Z,7.03
2023-02-26T23:25:48.096Z,5.25
2023-02-26T23:28:13.988Z,7.05
2023-02-26T23:30:38.589Z,6.40
2023-02-26T23:33:04.173Z,5.50
2023-02-26T23:35:28.789Z,5.97
2023-02-26T23:37:53.295Z,6.43
2023-02-26T23:40:18.001Z,6.07
2023-02-26T23:42:42.635Z,6.72
2023-02-26T23:45:10.587Z,7.15
2023-02-26T23:47:35.088Z,6.75
2023-02-26T23:49:59.474Z,7.43
2023-02-26T23:52:25.801Z,6.30
2023-02-26T23:54:50.259Z,8.73
2023-02-26T23:57:14.631Z,6.15
2023-02-26T23:59:39.317Z,7.95
